Fargo, ND (58102)

9:28 AM CDT on April 28, 2015 (GMT -0500)
Hector International | | Change Station
CLOSE
Current Station
Airport
Location: Fargo,
Elevation: 899 ft
Nearby Weather Stations

Elev 899 ft 46.91 °N, 96.81 °W | Updated 6 minutes ago

Mostly Cloudy
Mostly Cloudy
48 °F
Feels Like 48 °F
N
12
Wind Variable Wind from North

Today
High -- | Low -- °F
--% Chance of Precip.
Yesterday
High -- | Low -- °F
Precip. -- in
6:17 AM 8:33 PM
Waxing Gibbous, 74% visible
Pressure 30.29 in
Visibility 10.0 miles
Clouds Mostly Cloudy 1000 ft
Dew Point 43 °F
Humidity 83%
Rainfall 0.13 in
Snow Depth Not available.
UV 2 out of 12
Pollen 9.80 out of 12
Air Quality Not available.
Flu Activity Regional
SPECI KFAR 281422Z 36010KT 10SM BKN010 09/06 A3029 RMK AO2 CIG 008V013 T00890061

More Conditions Fewer Conditions

Pressure 30.29 in
Visibility 10.0 miles
Clouds Mostly Cloudy 1000 ft
Dew Point 43 °F
Humidity 83%
Rainfall 0.13 in
Snow Depth Not available.
UV 2 out of 12
Pollen 9.80 out of 12
Air Quality Not available.
Flu Activity Regional
SPECI KFAR 281422Z 36010KT 10SM BKN010 09/06 A3029 RMK AO2 CIG 008V013 T00890061

More Conditions Fewer Conditions

10-Day Weather Forecast

Almanac

Astronomy

Apr. 28, 2015 Rise Set
Actual Time
Civil Twilight
Nautical Twilight
Astronomical Twilight
Moon
Length of Visible Light
Length of Day
Tomorrow will be .
, % of the Moon is Illuminated

Today's Extremes

State Highs State Lows

Community

WunderPhotos

Upload Photos

1,817,652 photos uploaded!

WunderBlogs® & News

Nearby

Air Quality

  Air Quality AQ Index Pollutant
Not available.

Snow Depth

Station Depth Elevation

Earthquake Activity

City Distance Mag. Time & Date
Minimum magnitude displayed is 2.5.

Coastal Water Temperatures

Place Temperature

Stations

Nearby Weather Stations

Station Location Temp. Windchill Dew Point Humidity Wind Precip. Elev Updated Type